sensor_id;sensor_type;location;lat;lon;timestamp;P1;durP1;ratioP1;P2;durP2;ratioP2
12650;SDS011;6390;49.400;8.670;2023-03-23T04:31:57;1.45;;;1.20;;
12650;SDS011;6390;49.400;8.670;2023-03-23T04:34:26;1.20;;;1.10;;
12650;SDS011;6390;49.400;8.670;2023-03-23T04:36:52;1.75;;;1.20;;
12650;SDS011;6390;49.400;8.670;2023-03-23T04:39:18;1.70;;;1.30;;
12650;SDS011;6390;49.400;8.670;2023-03-23T04:41:44;1.90;;;1.30;;
12650;SDS011;6390;49.400;8.670;2023-03-23T04:44:11;1.10;;;1.00;;
12650;SDS011;6390;49.400;8.670;2023-03-23T04:46:42;1.80;;;0.93;;
12650;SDS011;6390;49.400;8.670;2023-03-23T04:49:10;1.77;;;1.00;;
12650;SDS011;6390;49.400;8.670;2023-03-23T04:51:45;1.50;;;1.00;;
12650;SDS011;6390;49.400;8.670;2023-03-23T04:54:13;1.27;;;1.02;;
12650;SDS011;6390;49.400;8.670;2023-03-23T04:56:39;1.33;;;1.23;;
12650;SDS011;6390;49.400;8.670;2023-03-23T04:59:06;1.30;;;1.20;;
12650;SDS011;6390;49.400;8.670;2023-03-23T05:01:32;1.83;;;1.00;;
12650;SDS011;6390;49.400;8.670;2023-03-23T05:04:01;1.20;;;1.10;;
12650;SDS011;6390;49.400;8.670;2023-03-23T05:06:28;1.02;;;0.93;;
12650;SDS011;6390;49.400;8.670;2023-03-23T05:08:54;1.30;;;1.20;;
12650;SDS011;6390;49.400;8.670;2023-03-23T05:11:20;1.10;;;1.00;;
12650;SDS011;6390;49.400;8.670;2023-03-23T05:13:46;1.63;;;1.35;;
12650;SDS011;6390;49.400;8.670;2023-03-23T05:16:12;1.15;;;1.00;;
12650;SDS011;6390;49.400;8.670;2023-03-23T05:18:38;1.20;;;1.10;;
12650;SDS011;6390;49.400;8.670;2023-03-23T05:21:04;1.30;;;1.20;;
12650;SDS011;6390;49.400;8.670;2023-03-23T05:23:30;1.42;;;1.30;;
12650;SDS011;6390;49.400;8.670;2023-03-23T05:25:58;1.10;;;1.00;;
12650;SDS011;6390;49.400;8.670;2023-03-23T05:28:28;1.58;;;1.20;;
12650;SDS011;6390;49.400;8.670;2023-03-23T05:30:55;2.03;;;1.20;;
12650;SDS011;6390;49.400;8.670;2023-03-23T05:33:22;1.63;;;1.20;;
12650;SDS011;6390;49.400;8.670;2023-03-23T05:35:48;1.27;;;1.17;;
12650;SDS011;6390;49.400;8.670;2023-03-23T05:38:15;2.05;;;1.20;;
12650;SDS011;6390;49.400;8.670;2023-03-23T05:40:41;1.90;;;1.38;;
12650;SDS011;6390;49.400;8.670;2023-03-23T05:43:08;1.40;;;1.30;;
12650;SDS011;6390;49.400;8.670;2023-03-23T05:45:34;1.40;;;1.27;;
12650;SDS011;6390;49.400;8.670;2023-03-23T05:48:01;1.40;;;1.30;;
12650;SDS011;6390;49.400;8.670;2023-03-23T05:50:27;1.30;;;1.20;;
12650;SDS011;6390;49.400;8.670;2023-03-23T05:52:54;1.23;;;1.10;;
12650;SDS011;6390;49.400;8.670;2023-03-23T05:55:20;1.10;;;1.00;;
12650;SDS011;6390;49.400;8.670;2023-03-23T05:57:46;2.15;;;1.27;;
12650;SDS011;6390;49.400;8.670;2023-03-23T06:00:13;1.27;;;1.10;;
12650;SDS011;6390;49.400;8.670;2023-03-23T06:02:40;1.60;;;1.00;;
12650;SDS011;6390;49.400;8.670;2023-03-23T06:05:10;1.38;;;1.27;;
12650;SDS011;6390;49.400;8.670;2023-03-23T06:07:36;1.10;;;1.00;;
12650;SDS011;6390;49.400;8.670;2023-03-23T06:10:03;3.92;;;1.23;;
12650;SDS011;6390;49.400;8.670;2023-03-23T06:12:34;1.38;;;1.27;;
12650;SDS011;6390;49.400;8.670;2023-03-23T06:15:04;1.20;;;1.10;;
12650;SDS011;6390;49.400;8.670;2023-03-23T06:17:32;1.42;;;1.10;;
12650;SDS011;6390;49.400;8.670;2023-03-23T06:20:01;1.20;;;1.10;;
12650;SDS011;6390;49.400;8.670;2023-03-23T06:22:29;1.15;;;1.05;;
12650;SDS011;6390;49.400;8.670;2023-03-23T06:24:55;1.60;;;1.30;;
12650;SDS011;6390;49.400;8.670;2023-03-23T06:27:22;1.10;;;1.00;;
12650;SDS011;6390;49.400;8.670;2023-03-23T06:29:49;1.70;;;1.10;;
12650;SDS011;6390;49.400;8.670;2023-03-23T06:32:15;1.58;;;1.25;;
12650;SDS011;6390;49.400;8.670;2023-03-23T06:34:41;1.13;;;1.02;;
12650;SDS011;6390;49.400;8.670;2023-03-23T06:37:09;1.15;;;1.05;;
12650;SDS011;6390;49.400;8.670;2023-03-23T06:39:37;0.90;;;0.90;;
12650;SDS011;6390;49.400;8.670;2023-03-23T06:42:03;1.50;;;1.10;;
12650;SDS011;6390;49.400;8.670;2023-03-23T06:44:30;1.45;;;1.10;;
12650;SDS011;6390;49.400;8.670;2023-03-23T06:46:56;1.15;;;1.05;;
12650;SDS011;6390;49.400;8.670;2023-03-23T06:49:22;1.20;;;1.10;;
12650;SDS011;6390;49.400;8.670;2023-03-23T06:51:49;1.48;;;1.15;;
12650;SDS011;6390;49.400;8.670;2023-03-23T06:54:15;1.27;;;1.10;;
12650;SDS011;6390;49.400;8.670;2023-03-23T06:56:41;1.02;;;1.00;;
12650;SDS011;6390;49.400;8.670;2023-03-23T06:59:07;1.60;;;1.08;;
12650;SDS011;6390;49.400;8.670;2023-03-23T07:01:35;1.70;;;1.10;;
12650;SDS011;6390;49.400;8.670;2023-03-23T07:04:01;1.05;;;0.90;;
12650;SDS011;6390;49.400;8.670;2023-03-23T07:06:27;1.02;;;1.02;;
12650;SDS011;6390;49.400;8.670;2023-03-23T07:08:53;1.13;;;1.00;;
12650;SDS011;6390;49.400;8.670;2023-03-23T07:11:19;1.08;;;0.98;;
12650;SDS011;6390;49.400;8.670;2023-03-23T07:13:45;1.33;;;1.00;;
12650;SDS011;6390;49.400;8.670;2023-03-23T07:16:11;3.28;;;1.25;;
12650;SDS011;6390;49.400;8.670;2023-03-23T07:18:37;1.63;;;1.48;;
12650;SDS011;6390;49.400;8.670;2023-03-23T07:21:04;2.10;;;1.15;;
12650;SDS011;6390;49.400;8.670;2023-03-23T07:23:30;1.17;;;1.08;;
12650;SDS011;6390;49.400;8.670;2023-03-23T07:25:57;1.15;;;1.00;;
12650;SDS011;6390;49.400;8.670;2023-03-23T07:28:23;0.82;;;0.82;;
12650;SDS011;6390;49.400;8.670;2023-03-23T07:30:50;0.80;;;0.80;;
12650;SDS011;6390;49.400;8.670;2023-03-23T07:33:16;1.48;;;0.98;;
12650;SDS011;6390;49.400;8.670;2023-03-23T07:35:43;0.98;;;0.90;;
12650;SDS011;6390;49.400;8.670;2023-03-23T07:38:09;1.00;;;0.90;;
12650;SDS011;6390;49.400;8.670;2023-03-23T07:40:35;0.88;;;0.80;;
12650;SDS011;6390;49.400;8.670;2023-03-23T07:43:03;1.00;;;0.82;;
12650;SDS011;6390;49.400;8.670;2023-03-23T07:45:30;0.80;;;0.80;;
12650;SDS011;6390;49.400;8.670;2023-03-23T07:47:56;0.75;;;0.75;;
12650;SDS011;6390;49.400;8.670;2023-03-23T07:50:23;1.23;;;0.90;;
12650;SDS011;6390;49.400;8.670;2023-03-23T07:52:50;0.65;;;0.65;;
12650;SDS011;6390;49.400;8.670;2023-03-23T07:55:19;1.38;;;1.00;;
12650;SDS011;6390;49.400;8.670;2023-03-23T07:57:48;0.80;;;0.80;;
12650;SDS011;6390;49.400;8.670;2023-03-23T08:00:16;2.13;;;0.90;;
12650;SDS011;6390;49.400;8.670;2023-03-23T08:02:49;0.90;;;0.80;;
12650;SDS011;6390;49.400;8.670;2023-03-23T08:05:17;0.77;;;0.77;;
12650;SDS011;6390;49.400;8.670;2023-03-23T08:07:45;2.28;;;0.88;;
12650;SDS011;6390;49.400;8.670;2023-03-23T08:10:12;0.80;;;0.80;;
12650;SDS011;6390;49.400;8.670;2023-03-23T08:12:40;0.88;;;0.70;;
12650;SDS011;6390;49.400;8.670;2023-03-23T08:15:08;0.90;;;0.70;;
12650;SDS011;6390;49.400;8.670;2023-03-23T08:17:40;0.68;;;0.68;;
12650;SDS011;6390;49.400;8.670;2023-03-23T08:20:07;0.90;;;0.77;;
12650;SDS011;6390;49.400;8.670;2023-03-23T08:22:38;1.17;;;1.02;;
12650;SDS011;6390;49.400;8.670;2023-03-23T08:25:06;1.20;;;1.05;;
12650;SDS011;6390;49.400;8.670;2023-03-23T08:27:34;1.23;;;0.70;;
12650;SDS011;6390;49.400;8.670;2023-03-23T08:30:00;2.17;;;0.80;;
12650;SDS011;6390;49.400;8.670;2023-03-23T08:32:27;1.08;;;0.90;;
12650;SDS011;6390;49.400;8.670;2023-03-23T08:34:54;1.25;;;0.90;;
12650;SDS011;6390;49.400;8.670;2023-03-23T08:37:20;1.00;;;0.85;;
12650;SDS011;6390;49.400;8.670;2023-03-23T08:39:49;2.25;;;1.00;;
12650;SDS011;6390;49.400;8.670;2023-03-23T08:42:18;0.98;;;0.88;;
12650;SDS011;6390;49.400;8.670;2023-03-23T08:44:44;0.80;;;0.80;;
12650;SDS011;6390;49.400;8.670;2023-03-23T08:47:10;1.10;;;1.00;;
12650;SDS011;6390;49.400;8.670;2023-03-23T08:49:36;1.25;;;1.00;;
12650;SDS011;6390;49.400;8.670;2023-03-23T08:52:03;1.67;;;0.80;;
12650;SDS011;6390;49.400;8.670;2023-03-23T08:54:29;1.10;;;0.90;;
12650;SDS011;6390;49.400;8.670;2023-03-23T08:56:58;1.30;;;0.88;;
12650;SDS011;6390;49.400;8.670;2023-03-23T08:59:26;1.15;;;1.00;;
12650;SDS011;6390;49.400;8.670;2023-03-23T09:01:53;1.17;;;1.00;;
12650;SDS011;6390;49.400;8.670;2023-03-23T09:04:19;1.50;;;0.90;;
12650;SDS011;6390;49.400;8.670;2023-03-23T09:06:46;1.10;;;0.80;;
12650;SDS011;6390;49.400;8.670;2023-03-23T09:09:12;2.40;;;0.90;;
12650;SDS011;6390;49.400;8.670;2023-03-23T09:11:38;1.38;;;1.02;;
12650;SDS011;6390;49.400;8.670;2023-03-23T09:14:05;1.25;;;1.00;;
12650;SDS011;6390;49.400;8.670;2023-03-23T09:16:33;1.17;;;1.00;;
12650;SDS011;6390;49.400;8.670;2023-03-23T09:19:00;0.85;;;0.85;;
12650;SDS011;6390;49.400;8.670;2023-03-23T09:21:26;0.93;;;0.80;;
12650;SDS011;6390;49.400;8.670;2023-03-23T09:23:54;0.73;;;0.73;;
12650;SDS011;6390;49.400;8.670;2023-03-23T09:26:23;1.38;;;0.95;;
12650;SDS011;6390;49.400;8.670;2023-03-23T09:28:51;1.27;;;1.00;;
12650;SDS011;6390;49.400;8.670;2023-03-23T09:31:17;1.13;;;0.80;;
12650;SDS011;6390;49.400;8.670;2023-03-23T09:33:47;0.77;;;0.77;;
12650;SDS011;6390;49.400;8.670;2023-03-23T09:36:17;2.55;;;1.00;;
12650;SDS011;6390;49.400;8.670;2023-03-23T09:38:46;0.70;;;0.60;;
12650;SDS011;6390;49.400;8.670;2023-03-23T09:41:24;1.90;;;0.88;;
12650;SDS011;6390;49.400;8.670;2023-03-23T09:44:28;0.60;;;0.60;;
12650;SDS011;6390;49.400;8.670;2023-03-23T09:49:43;0.70;;;0.70;;
12650;SDS011;6390;49.400;8.670;2023-03-23T09:52:48;1.10;;;0.68;;
12650;SDS011;6390;49.400;8.670;2023-03-23T09:55:26;1.25;;;0.60;;
12650;SDS011;6390;49.400;8.670;2023-03-23T09:58:01;0.80;;;0.80;;
12650;SDS011;6390;49.400;8.670;2023-03-23T10:00:51;1.02;;;0.80;;
12650;SDS011;6390;49.400;8.670;2023-03-23T10:03:39;1.20;;;0.93;;
12650;SDS011;6390;49.400;8.670;2023-03-23T10:06:08;0.80;;;0.80;;
12650;SDS011;6390;49.400;8.670;2023-03-23T10:08:38;1.15;;;1.00;;
12650;SDS011;6390;49.400;8.670;2023-03-23T10:11:19;0.95;;;0.95;;
12650;SDS011;6390;49.400;8.670;2023-03-23T10:14:06;1.00;;;0.90;;
12650;SDS011;6390;49.400;8.670;2023-03-23T10:22:33;1.23;;;1.10;;
12650;SDS011;6390;49.400;8.670;2023-03-23T10:30:42;1.30;;;0.80;;
12650;SDS011;6390;49.400;8.670;2023-03-23T10:33:15;0.73;;;0.73;;
12650;SDS011;6390;49.400;8.670;2023-03-23T10:38:43;0.90;;;0.90;;
12650;SDS011;6390;49.400;8.670;2023-03-23T10:41:19;0.95;;;0.85;;
12650;SDS011;6390;49.400;8.670;2023-03-23T10:43:46;0.93;;;0.90;;
12650;SDS011;6390;49.400;8.670;2023-03-23T10:49:13;0.93;;;0.80;;
12650;SDS011;6390;49.400;8.670;2023-03-23T10:51:47;0.80;;;0.80;;
12650;SDS011;6390;49.400;8.670;2023-03-23T10:54:32;1.80;;;0.90;;
12650;SDS011;6390;49.400;8.670;2023-03-23T10:57:12;1.52;;;1.08;;
12650;SDS011;6390;49.400;8.670;2023-03-23T11:02:57;1.50;;;0.82;;
12650;SDS011;6390;49.400;8.670;2023-03-23T11:08:14;0.82;;;0.75;;
12650;SDS011;6390;49.400;8.670;2023-03-23T11:10:49;1.10;;;0.90;;
12650;SDS011;6390;49.400;8.670;2023-03-23T11:13:31;1.50;;;0.95;;
12650;SDS011;6390;49.400;8.670;2023-03-23T11:15:58;0.90;;;0.63;;
12650;SDS011;6390;49.400;8.670;2023-03-23T11:18:41;1.25;;;1.00;;
12650;SDS011;6390;49.400;8.670;2023-03-23T11:21:08;0.77;;;0.77;;
12650;SDS011;6390;49.400;8.670;2023-03-23T11:23:39;1.27;;;1.13;;
12650;SDS011;6390;49.400;8.670;2023-03-23T11:26:24;0.55;;;0.55;;
12650;SDS011;6390;49.400;8.670;2023-03-23T11:29:03;0.80;;;0.80;;
12650;SDS011;6390;49.400;8.670;2023-03-23T11:31:51;0.80;;;0.80;;
12650;SDS011;6390;49.400;8.670;2023-03-23T11:34:36;1.08;;;0.70;;
12650;SDS011;6390;49.400;8.670;2023-03-23T11:42:43;1.05;;;0.70;;
12650;SDS011;6390;49.400;8.670;2023-03-23T11:45:17;0.70;;;0.70;;
12650;SDS011;6390;49.400;8.670;2023-03-23T11:50:54;0.90;;;0.80;;
12650;SDS011;6390;49.400;8.670;2023-03-23T11:56:33;1.80;;;0.70;;
12650;SDS011;6390;49.400;8.670;2023-03-23T11:59:02;1.27;;;0.90;;
12650;SDS011;6390;49.400;8.670;2023-03-23T12:01:40;1.92;;;0.60;;
12650;SDS011;6390;49.400;8.670;2023-03-23T12:15:46;0.90;;;0.80;;
12650;SDS011;6390;49.400;8.670;2023-03-23T12:21:19;0.70;;;0.70;;
12650;SDS011;6390;49.400;8.670;2023-03-23T12:24:26;1.20;;;0.90;;
12650;SDS011;6390;49.400;8.670;2023-03-23T12:27:17;0.70;;;0.70;;
12650;SDS011;6390;49.400;8.670;2023-03-23T12:36:34;0.65;;;0.65;;
12650;SDS011;6390;49.400;8.670;2023-03-23T12:45:20;0.65;;;0.65;;
12650;SDS011;6390;49.400;8.670;2023-03-23T12:48:12;0.57;;;0.57;;
12650;SDS011;6390;49.400;8.670;2023-03-23T12:53:50;0.93;;;0.75;;
12650;SDS011;6390;49.400;8.670;2023-03-23T12:59:29;0.65;;;0.65;;
12650;SDS011;6390;49.400;8.670;2023-03-23T13:07:59;0.88;;;0.60;;
12650;SDS011;6390;49.400;8.670;2023-03-23T13:10:32;0.77;;;0.70;;
12650;SDS011;6390;49.400;8.670;2023-03-23T13:13:03;0.65;;;0.65;;
12650;SDS011;6390;49.400;8.670;2023-03-23T13:18:20;0.68;;;0.60;;
12650;SDS011;6390;49.400;8.670;2023-03-23T13:21:16;0.75;;;0.75;;
12650;SDS011;6390;49.400;8.670;2023-03-23T13:23:55;0.75;;;0.75;;
12650;SDS011;6390;49.400;8.670;2023-03-23T13:26:28;1.20;;;0.77;;
12650;SDS011;6390;49.400;8.670;2023-03-23T13:29:15;1.05;;;0.95;;
12650;SDS011;6390;49.400;8.670;2023-03-23T13:31:45;0.80;;;0.68;;
12650;SDS011;6390;49.400;8.670;2023-03-23T13:37:00;1.00;;;0.90;;
12650;SDS011;6390;49.400;8.670;2023-03-23T13:39:30;1.95;;;0.70;;
12650;SDS011;6390;49.400;8.670;2023-03-23T13:42:03;0.52;;;0.52;;
12650;SDS011;6390;49.400;8.670;2023-03-23T13:44:40;0.70;;;0.60;;
12650;SDS011;6390;49.400;8.670;2023-03-23T13:49:53;0.88;;;0.80;;
12650;SDS011;6390;49.400;8.670;2023-03-23T14:11:01;0.50;;;0.50;;
12650;SDS011;6390;49.400;8.670;2023-03-23T14:13:51;1.77;;;0.90;;
12650;SDS011;6390;49.400;8.670;2023-03-23T14:16:31;0.77;;;0.77;;
12650;SDS011;6390;49.400;8.670;2023-03-23T14:19:02;0.68;;;0.50;;
12650;SDS011;6390;49.400;8.670;2023-03-23T14:21:39;0.70;;;0.65;;
12650;SDS011;6390;49.400;8.670;2023-03-23T14:24:32;0.70;;;0.70;;
12650;SDS011;6390;49.400;8.670;2023-03-23T14:29:35;2.35;;;0.65;;
12650;SDS011;6390;49.400;8.670;2023-03-23T14:32:01;0.70;;;0.70;;
12650;SDS011;6390;49.400;8.670;2023-03-23T14:34:31;1.75;;;0.75;;
12650;SDS011;6390;49.400;8.670;2023-03-23T14:36:58;0.70;;;0.70;;
12650;SDS011;6390;49.400;8.670;2023-03-23T14:39:32;0.68;;;0.68;;
12650;SDS011;6390;49.400;8.670;2023-03-23T14:42:01;0.70;;;0.70;;
12650;SDS011;6390;49.400;8.670;2023-03-23T14:44:38;1.05;;;0.88;;
12650;SDS011;6390;49.400;8.670;2023-03-23T14:47:13;1.00;;;0.90;;
12650;SDS011;6390;49.400;8.670;2023-03-23T14:49:52;1.05;;;0.98;;
12650;SDS011;6390;49.400;8.670;2023-03-23T14:52:21;0.98;;;0.90;;
12650;SDS011;6390;49.400;8.670;2023-03-23T14:54:52;0.70;;;0.70;;
12650;SDS011;6390;49.400;8.670;2023-03-23T14:57:25;1.00;;;0.70;;
12650;SDS011;6390;49.400;8.670;2023-03-23T14:59:53;0.60;;;0.60;;
12650;SDS011;6390;49.400;8.670;2023-03-23T15:02:22;0.65;;;0.65;;
12650;SDS011;6390;49.400;8.670;2023-03-23T15:04:52;0.75;;;0.75;;
12650;SDS011;6390;49.400;8.670;2023-03-23T15:07:44;4.22;;;0.63;;
12650;SDS011;6390;49.400;8.670;2023-03-23T15:10:15;0.82;;;0.82;;
12650;SDS011;6390;49.400;8.670;2023-03-23T15:12:46;0.70;;;0.70;;
12650;SDS011;6390;49.400;8.670;2023-03-23T15:15:19;1.08;;;0.80;;
12650;SDS011;6390;49.400;8.670;2023-03-23T15:17:55;0.60;;;0.60;;
12650;SDS011;6390;49.400;8.670;2023-03-23T15:20:24;0.90;;;0.90;;
12650;SDS011;6390;49.400;8.670;2023-03-23T15:22:56;1.05;;;0.70;;
12650;SDS011;6390;49.400;8.670;2023-03-23T15:25:33;1.33;;;0.95;;
12650;SDS011;6390;49.400;8.670;2023-03-23T15:30:46;0.90;;;0.90;;
12650;SDS011;6390;49.400;8.670;2023-03-23T15:33:19;0.88;;;0.88;;
12650;SDS011;6390;49.400;8.670;2023-03-23T15:35:51;0.90;;;0.80;;
12650;SDS011;6390;49.400;8.670;2023-03-23T15:40:58;0.70;;;0.70;;
12650;SDS011;6390;49.400;8.670;2023-03-23T15:43:35;0.98;;;0.85;;
12650;SDS011;6390;49.400;8.670;2023-03-23T15:46:20;0.80;;;0.80;;
12650;SDS011;6390;49.400;8.670;2023-03-23T15:48:51;1.08;;;0.98;;
12650;SDS011;6390;49.400;8.670;2023-03-23T15:51:24;1.05;;;0.90;;
12650;SDS011;6390;49.400;8.670;2023-03-23T15:53:53;1.15;;;0.90;;
12650;SDS011;6390;49.400;8.670;2023-03-23T15:56:21;0.80;;;0.80;;
12650;SDS011;6390;49.400;8.670;2023-03-23T15:58:47;1.88;;;1.00;;
12650;SDS011;6390;49.400;8.670;2023-03-23T16:01:14;1.05;;;0.95;;
12650;SDS011;6390;49.400;8.670;2023-03-23T16:03:50;0.75;;;0.75;;
12650;SDS011;6390;49.400;8.670;2023-03-23T16:06:21;0.95;;;0.93;;
12650;SDS011;6390;49.400;8.670;2023-03-23T16:08:52;0.93;;;0.90;;
12650;SDS011;6390;49.400;8.670;2023-03-23T16:11:19;1.08;;;0.90;;
12650;SDS011;6390;49.400;8.670;2023-03-23T16:13:46;1.02;;;0.90;;
12650;SDS011;6390;49.400;8.670;2023-03-23T16:16:14;1.10;;;1.00;;
12650;SDS011;6390;49.400;8.670;2023-03-23T16:18:43;1.33;;;0.93;;
12650;SDS011;6390;49.400;8.670;2023-03-23T16:21:09;1.60;;;1.20;;
12650;SDS011;6390;49.400;8.670;2023-03-23T16:23:35;1.67;;;1.08;;
12650;SDS011;6390;49.400;8.670;2023-03-23T16:26:02;1.20;;;1.10;;
12650;SDS011;6390;49.400;8.670;2023-03-23T16:28:28;1.30;;;1.20;;
12650;SDS011;6390;49.400;8.670;2023-03-23T16:30:55;1.25;;;1.15;;
12650;SDS011;6390;49.400;8.670;2023-03-23T16:33:24;1.23;;;1.13;;
12650;SDS011;6390;49.400;8.670;2023-03-23T16:35:50;1.30;;;1.20;;
12650;SDS011;6390;49.400;8.670;2023-03-23T16:38:16;1.25;;;1.10;;
12650;SDS011;6390;49.400;8.670;2023-03-23T16:40:43;1.10;;;1.05;;
12650;SDS011;6390;49.400;8.670;2023-03-23T16:43:10;2.20;;;1.08;;
12650;SDS011;6390;49.400;8.670;2023-03-23T16:45:37;1.30;;;1.20;;
12650;SDS011;6390;49.400;8.670;2023-03-23T16:48:07;1.65;;;1.52;;
12650;SDS011;6390;49.400;8.670;2023-03-23T16:50:34;2.53;;;1.20;;
12650;SDS011;6390;49.400;8.670;2023-03-23T16:53:02;1.95;;;1.20;;
12650;SDS011;6390;49.400;8.670;2023-03-23T16:55:29;1.40;;;1.30;;
12650;SDS011;6390;49.400;8.670;2023-03-23T16:57:56;1.13;;;1.02;;
12650;SDS011;6390;49.400;8.670;2023-03-23T17:00:22;1.48;;;1.17;;
12650;SDS011;6390;49.400;8.670;2023-03-23T17:02:51;4.50;;;1.30;;
12650;SDS011;6390;49.400;8.670;2023-03-23T17:05:21;2.70;;;1.10;;
12650;SDS011;6390;49.400;8.670;2023-03-23T17:07:54;1.30;;;1.20;;
12650;SDS011;6390;49.400;8.670;2023-03-23T17:10:22;2.28;;;1.20;;
12650;SDS011;6390;49.400;8.670;2023-03-23T17:12:54;1.38;;;1.20;;
12650;SDS011;6390;49.400;8.670;2023-03-23T17:15:20;1.40;;;1.30;;
12650;SDS011;6390;49.400;8.670;2023-03-23T17:17:48;2.47;;;1.30;;
12650;SDS011;6390;49.400;8.670;2023-03-23T17:20:14;1.48;;;1.30;;
12650;SDS011;6390;49.400;8.670;2023-03-23T17:22:41;1.35;;;1.25;;
12650;SDS011;6390;49.400;8.670;2023-03-23T17:25:07;1.30;;;1.20;;
12650;SDS011;6390;49.400;8.670;2023-03-23T17:27:34;1.70;;;1.10;;
12650;SDS011;6390;49.400;8.670;2023-03-23T17:30:02;1.20;;;1.10;;
12650;SDS011;6390;49.400;8.670;2023-03-23T17:32:30;1.38;;;1.20;;
12650;SDS011;6390;49.400;8.670;2023-03-23T17:34:57;2.25;;;1.10;;
12650;SDS011;6390;49.400;8.670;2023-03-23T17:37:23;1.30;;;1.20;;
12650;SDS011;6390;49.400;8.670;2023-03-23T17:39:49;1.58;;;1.17;;
12650;SDS011;6390;49.400;8.670;2023-03-23T17:42:15;1.42;;;1.30;;
12650;SDS011;6390;49.400;8.670;2023-03-23T17:44:42;1.30;;;1.00;;
12650;SDS011;6390;49.400;8.670;2023-03-23T17:47:08;1.50;;;1.20;;
12650;SDS011;6390;49.400;8.670;2023-03-23T17:49:35;1.33;;;1.20;;
12650;SDS011;6390;49.400;8.670;2023-03-23T17:52:01;1.25;;;1.15;;
12650;SDS011;6390;49.400;8.670;2023-03-23T17:54:28;1.77;;;1.40;;
12650;SDS011;6390;49.400;8.670;2023-03-23T17:56:55;1.92;;;1.30;;
12650;SDS011;6390;49.400;8.670;2023-03-23T17:59:27;1.73;;;1.40;;
12650;SDS011;6390;49.400;8.670;2023-03-23T18:01:54;1.33;;;1.20;;
12650;SDS011;6390;49.400;8.670;2023-03-23T18:04:20;1.20;;;1.10;;
12650;SDS011;6390;49.400;8.670;2023-03-23T18:06:46;1.33;;;1.23;;
12650;SDS011;6390;49.400;8.670;2023-03-23T18:09:13;1.55;;;1.40;;
12650;SDS011;6390;49.400;8.670;2023-03-23T18:11:39;3.10;;;1.40;;
12650;SDS011;6390;49.400;8.670;2023-03-23T18:14:05;1.63;;;1.40;;
12650;SDS011;6390;49.400;8.670;2023-03-23T18:16:32;1.20;;;1.10;;
12650;SDS011;6390;49.400;8.670;2023-03-23T18:18:58;1.48;;;1.38;;
12650;SDS011;6390;49.400;8.670;2023-03-23T18:21:25;2.63;;;2.30;;
12650;SDS011;6390;49.400;8.670;2023-03-23T18:23:51;4.45;;;2.40;;
12650;SDS011;6390;49.400;8.670;2023-03-23T18:26:17;2.55;;;1.95;;
12650;SDS011;6390;49.400;8.670;2023-03-23T18:28:45;3.17;;;2.25;;
12650;SDS011;6390;49.400;8.670;2023-03-23T18:31:13;1.90;;;1.80;;
12650;SDS011;6390;49.400;8.670;2023-03-23T18:33:41;1.65;;;1.55;;
12650;SDS011;6390;49.400;8.670;2023-03-23T18:36:10;2.25;;;1.45;;
12650;SDS011;6390;49.400;8.670;2023-03-23T18:38:42;1.90;;;1.60;;
12650;SDS011;6390;49.400;8.670;2023-03-23T18:41:09;2.03;;;1.58;;
12650;SDS011;6390;49.400;8.670;2023-03-23T18:43:36;1.33;;;1.23;;
12650;SDS011;6390;49.400;8.670;2023-03-23T18:46:02;2.42;;;1.40;;
12650;SDS011;6390;49.400;8.670;2023-03-23T18:48:30;1.88;;;1.40;;
12650;SDS011;6390;49.400;8.670;2023-03-23T18:50:56;1.30;;;1.20;;
12650;SDS011;6390;49.400;8.670;2023-03-23T18:53:24;1.92;;;1.73;;
12650;SDS011;6390;49.400;8.670;2023-03-23T18:55:51;1.90;;;1.70;;
12650;SDS011;6390;49.400;8.670;2023-03-23T18:58:18;2.05;;;1.80;;
12650;SDS011;6390;49.400;8.670;2023-03-23T19:00:45;2.10;;;1.45;;
12650;SDS011;6390;49.400;8.670;2023-03-23T19:03:11;2.53;;;1.65;;
12650;SDS011;6390;49.400;8.670;2023-03-23T19:05:39;1.80;;;1.63;;
12650;SDS011;6390;49.400;8.670;2023-03-23T19:08:06;2.95;;;1.75;;
12650;SDS011;6390;49.400;8.670;2023-03-23T19:10:40;3.72;;;1.90;;
12650;SDS011;6390;49.400;8.670;2023-03-23T19:13:07;2.97;;;2.05;;
12650;SDS011;6390;49.400;8.670;2023-03-23T19:15:38;2.20;;;2.00;;
12650;SDS011;6390;49.400;8.670;2023-03-23T19:18:05;2.58;;;2.10;;
12650;SDS011;6390;49.400;8.670;2023-03-23T19:20:32;2.83;;;2.50;;
12650;SDS011;6390;49.400;8.670;2023-03-23T19:22:58;2.53;;;2.33;;
12650;SDS011;6390;49.400;8.670;2023-03-23T19:25:25;2.47;;;2.25;;
12650;SDS011;6390;49.400;8.670;2023-03-23T19:27:51;2.92;;;2.20;;
12650;SDS011;6390;49.400;8.670;2023-03-23T19:30:17;2.95;;;2.30;;
12650;SDS011;6390;49.400;8.670;2023-03-23T19:32:44;2.50;;;2.30;;
12650;SDS011;6390;49.400;8.670;2023-03-23T19:35:10;3.38;;;2.25;;
12650;SDS011;6390;49.400;8.670;2023-03-23T19:37:36;2.30;;;2.10;;
12650;SDS011;6390;49.400;8.670;2023-03-23T19:40:03;4.45;;;2.15;;
12650;SDS011;6390;49.400;8.670;2023-03-23T19:42:30;3.28;;;2.25;;
12650;SDS011;6390;49.400;8.670;2023-03-23T19:44:57;2.95;;;2.30;;
12650;SDS011;6390;49.400;8.670;2023-03-23T19:47:23;2.53;;;2.30;;
12650;SDS011;6390;49.400;8.670;2023-03-23T19:49:49;2.00;;;1.80;;
12650;SDS011;6390;49.400;8.670;2023-03-23T19:52:15;2.47;;;2.00;;
12650;SDS011;6390;49.400;8.670;2023-03-23T19:54:42;2.10;;;1.90;;
12650;SDS011;6390;49.400;8.670;2023-03-23T19:57:08;2.90;;;2.30;;
12650;SDS011;6390;49.400;8.670;2023-03-23T19:59:35;2.67;;;2.25;;
12650;SDS011;6390;49.400;8.670;2023-03-23T20:02:05;3.45;;;2.55;;
12650;SDS011;6390;49.400;8.670;2023-03-23T20:04:31;3.15;;;2.53;;
12650;SDS011;6390;49.400;8.670;2023-03-23T20:07:01;3.22;;;2.55;;
12650;SDS011;6390;49.400;8.670;2023-03-23T20:09:28;2.95;;;2.40;;
12650;SDS011;6390;49.400;8.670;2023-03-23T20:11:54;3.05;;;2.40;;
12650;SDS011;6390;49.400;8.670;2023-03-23T20:14:20;3.17;;;2.45;;
12650;SDS011;6390;49.400;8.670;2023-03-23T20:16:46;2.92;;;2.50;;
12650;SDS011;6390;49.400;8.670;2023-03-23T20:19:13;2.83;;;2.15;;
12650;SDS011;6390;49.400;8.670;2023-03-23T20:21:39;2.40;;;2.17;;
12650;SDS011;6390;49.400;8.670;2023-03-23T20:24:05;2.92;;;2.50;;
12650;SDS011;6390;49.400;8.670;2023-03-23T20:26:35;2.70;;;2.22;;
12650;SDS011;6390;49.400;8.670;2023-03-23T20:29:07;2.25;;;2.00;;
12650;SDS011;6390;49.400;8.670;2023-03-23T20:31:35;2.92;;;2.00;;
12650;SDS011;6390;49.400;8.670;2023-03-23T20:34:12;1.98;;;1.77;;
12650;SDS011;6390;49.400;8.670;2023-03-23T20:36:52;3.53;;;2.13;;
12650;SDS011;6390;49.400;8.670;2023-03-23T20:39:21;2.83;;;2.03;;
12650;SDS011;6390;49.400;8.670;2023-03-23T20:41:49;2.30;;;2.10;;
12650;SDS011;6390;49.400;8.670;2023-03-23T20:44:19;2.38;;;1.90;;
12650;SDS011;6390;49.400;8.670;2023-03-23T20:46:47;1.95;;;1.73;;
12650;SDS011;6390;49.400;8.670;2023-03-23T20:49:17;3.08;;;1.95;;
12650;SDS011;6390;49.400;8.670;2023-03-23T20:51:44;1.88;;;1.75;;
12650;SDS011;6390;49.400;8.670;2023-03-23T20:54:11;2.10;;;1.90;;
12650;SDS011;6390;49.400;8.670;2023-03-23T20:56:40;1.75;;;1.65;;
12650;SDS011;6390;49.400;8.670;2023-03-23T20:59:10;1.80;;;1.55;;
12650;SDS011;6390;49.400;8.670;2023-03-23T21:01:37;2.45;;;2.08;;
12650;SDS011;6390;49.400;8.670;2023-03-23T21:04:04;2.17;;;1.98;;
12650;SDS011;6390;49.400;8.670;2023-03-23T21:06:38;2.65;;;2.20;;
12650;SDS011;6390;49.400;8.670;2023-03-23T21:09:08;4.18;;;2.20;;
12650;SDS011;6390;49.400;8.670;2023-03-23T21:11:34;2.70;;;2.17;;
12650;SDS011;6390;49.400;8.670;2023-03-23T21:14:01;2.40;;;2.05;;
12650;SDS011;6390;49.400;8.670;2023-03-23T21:16:28;4.05;;;1.95;;
12650;SDS011;6390;49.400;8.670;2023-03-23T21:18:54;3.92;;;2.20;;
12650;SDS011;6390;49.400;8.670;2023-03-23T21:21:21;3.08;;;2.10;;
12650;SDS011;6390;49.400;8.670;2023-03-23T21:23:48;2.38;;;2.10;;
12650;SDS011;6390;49.400;8.670;2023-03-23T21:26:17;2.33;;;1.88;;
12650;SDS011;6390;49.400;8.670;2023-03-23T21:28:45;3.88;;;2.08;;
12650;SDS011;6390;49.400;8.670;2023-03-23T21:31:14;2.35;;;2.15;;
12650;SDS011;6390;49.400;8.670;2023-03-23T21:33:41;2.38;;;1.98;;
12650;SDS011;6390;49.400;8.670;2023-03-23T21:36:08;2.22;;;2.03;;
12650;SDS011;6390;49.400;8.670;2023-03-23T21:38:35;3.00;;;1.95;;